sensor_id;sensor_type;location;lat;lon;timestamp;P1;durP1;ratioP1;P2;durP2;ratioP2
4508;SDS011;2267;48.816;9.230;2023-12-14T00:00:12;3.87;;;3.40;;
4508;SDS011;2267;48.816;9.230;2023-12-14T00:02:39;3.50;;;3.20;;
4508;SDS011;2267;48.816;9.230;2023-12-14T00:05:06;5.40;;;3.20;;
4508;SDS011;2267;48.816;9.230;2023-12-14T00:07:33;2.50;;;2.23;;
4508;SDS011;2267;48.816;9.230;2023-12-14T00:10:00;2.73;;;2.50;;
4508;SDS011;2267;48.816;9.230;2023-12-14T00:12:27;2.70;;;2.40;;
4508;SDS011;2267;48.816;9.230;2023-12-14T00:14:53;2.70;;;2.50;;
4508;SDS011;2267;48.816;9.230;2023-12-14T00:17:20;4.73;;;3.00;;
4508;SDS011;2267;48.816;9.230;2023-12-14T00:19:47;3.50;;;3.20;;
4508;SDS011;2267;48.816;9.230;2023-12-14T00:22:14;2.63;;;2.43;;
4508;SDS011;2267;48.816;9.230;2023-12-14T00:24:41;3.17;;;2.87;;
4508;SDS011;2267;48.816;9.230;2023-12-14T00:27:08;3.60;;;2.40;;
4508;SDS011;2267;48.816;9.230;2023-12-14T00:29:35;3.40;;;3.10;;
4508;SDS011;2267;48.816;9.230;2023-12-14T00:32:02;3.90;;;3.50;;
4508;SDS011;2267;48.816;9.230;2023-12-14T00:34:29;3.40;;;3.10;;
4508;SDS011;2267;48.816;9.230;2023-12-14T00:36:56;4.70;;;3.30;;
4508;SDS011;2267;48.816;9.230;2023-12-14T00:39:23;4.07;;;3.67;;
4508;SDS011;2267;48.816;9.230;2023-12-14T00:41:50;4.07;;;3.67;;
4508;SDS011;2267;48.816;9.230;2023-12-14T00:44:17;4.87;;;4.37;;
4508;SDS011;2267;48.816;9.230;2023-12-14T00:46:44;3.67;;;3.23;;
4508;SDS011;2267;48.816;9.230;2023-12-14T00:49:11;4.23;;;3.23;;
4508;SDS011;2267;48.816;9.230;2023-12-14T00:51:38;3.63;;;3.33;;
4508;SDS011;2267;48.816;9.230;2023-12-14T00:54:04;3.73;;;3.00;;
4508;SDS011;2267;48.816;9.230;2023-12-14T00:56:31;3.60;;;3.30;;
4508;SDS011;2267;48.816;9.230;2023-12-14T00:58:58;3.63;;;2.50;;
4508;SDS011;2267;48.816;9.230;2023-12-14T01:01:25;3.30;;;3.00;;
4508;SDS011;2267;48.816;9.230;2023-12-14T01:03:52;3.27;;;2.97;;
4508;SDS011;2267;48.816;9.230;2023-12-14T01:06:19;3.70;;;3.40;;
4508;SDS011;2267;48.816;9.230;2023-12-14T01:08:48;3.90;;;2.93;;
4508;SDS011;2267;48.816;9.230;2023-12-14T01:11:15;2.90;;;2.60;;
4508;SDS011;2267;48.816;9.230;2023-12-14T01:13:42;4.13;;;3.20;;
4508;SDS011;2267;48.816;9.230;2023-12-14T01:16:09;3.43;;;3.10;;
4508;SDS011;2267;48.816;9.230;2023-12-14T01:18:39;3.43;;;3.17;;
4508;SDS011;2267;48.816;9.230;2023-12-14T01:21:06;4.60;;;4.20;;
4508;SDS011;2267;48.816;9.230;2023-12-14T01:23:33;5.50;;;3.97;;
4508;SDS011;2267;48.816;9.230;2023-12-14T01:25:59;3.37;;;3.07;;
4508;SDS011;2267;48.816;9.230;2023-12-14T01:28:26;3.67;;;3.37;;
4508;SDS011;2267;48.816;9.230;2023-12-14T01:30:53;3.63;;;3.33;;
4508;SDS011;2267;48.816;9.230;2023-12-14T01:33:20;3.63;;;3.33;;
4508;SDS011;2267;48.816;9.230;2023-12-14T01:35:47;3.67;;;3.37;;
4508;SDS011;2267;48.816;9.230;2023-12-14T01:38:14;4.60;;;4.10;;
4508;SDS011;2267;48.816;9.230;2023-12-14T01:40:41;3.80;;;3.33;;
4508;SDS011;2267;48.816;9.230;2023-12-14T01:43:08;4.30;;;3.43;;
4508;SDS011;2267;48.816;9.230;2023-12-14T01:45:38;4.20;;;3.90;;
4508;SDS011;2267;48.816;9.230;2023-12-14T01:48:05;4.13;;;3.83;;
4508;SDS011;2267;48.816;9.230;2023-12-14T01:50:32;5.00;;;4.30;;
4508;SDS011;2267;48.816;9.230;2023-12-14T01:52:59;5.67;;;5.00;;
4508;SDS011;2267;48.816;9.230;2023-12-14T01:55:26;4.57;;;4.17;;
4508;SDS011;2267;48.816;9.230;2023-12-14T01:57:53;4.43;;;4.00;;
4508;SDS011;2267;48.816;9.230;2023-12-14T02:03:25;5.70;;;4.57;;
4508;SDS011;2267;48.816;9.230;2023-12-14T02:05:52;4.43;;;4.03;;
4508;SDS011;2267;48.816;9.230;2023-12-14T02:08:19;4.70;;;4.30;;
4508;SDS011;2267;48.816;9.230;2023-12-14T02:10:45;4.97;;;4.53;;
4508;SDS011;2267;48.816;9.230;2023-12-14T02:13:12;4.43;;;4.10;;
4508;SDS011;2267;48.816;9.230;2023-12-14T02:15:39;5.07;;;4.20;;
4508;SDS011;2267;48.816;9.230;2023-12-14T02:18:06;4.37;;;3.87;;
4508;SDS011;2267;48.816;9.230;2023-12-14T02:20:33;4.60;;;4.00;;
4508;SDS011;2267;48.816;9.230;2023-12-14T02:23:00;6.37;;;3.80;;
4508;SDS011;2267;48.816;9.230;2023-12-14T02:25:28;4.13;;;3.80;;
4508;SDS011;2267;48.816;9.230;2023-12-14T02:27:55;7.60;;;3.97;;
4508;SDS011;2267;48.816;9.230;2023-12-14T02:30:22;4.57;;;3.47;;
4508;SDS011;2267;48.816;9.230;2023-12-14T02:32:49;4.67;;;4.27;;
4508;SDS011;2267;48.816;9.230;2023-12-14T02:35:16;4.07;;;3.77;;
4508;SDS011;2267;48.816;9.230;2023-12-14T02:37:44;5.07;;;4.30;;
4508;SDS011;2267;48.816;9.230;2023-12-14T02:40:12;6.03;;;3.80;;
4508;SDS011;2267;48.816;9.230;2023-12-14T02:42:39;5.07;;;4.57;;
4508;SDS011;2267;48.816;9.230;2023-12-14T02:45:07;5.00;;;4.10;;
4508;SDS011;2267;48.816;9.230;2023-12-14T02:47:34;4.13;;;3.73;;
4508;SDS011;2267;48.816;9.230;2023-12-14T02:50:01;4.43;;;4.03;;
4508;SDS011;2267;48.816;9.230;2023-12-14T02:52:28;6.53;;;4.13;;
4508;SDS011;2267;48.816;9.230;2023-12-14T02:54:55;5.07;;;4.57;;
4508;SDS011;2267;48.816;9.230;2023-12-14T02:57:22;3.87;;;3.57;;
4508;SDS011;2267;48.816;9.230;2023-12-14T02:59:49;4.67;;;3.80;;
4508;SDS011;2267;48.816;9.230;2023-12-14T03:02:15;4.17;;;3.77;;
4508;SDS011;2267;48.816;9.230;2023-12-14T03:04:43;4.37;;;3.50;;
4508;SDS011;2267;48.816;9.230;2023-12-14T03:07:09;5.53;;;4.33;;
4508;SDS011;2267;48.816;9.230;2023-12-14T03:09:39;4.47;;;4.17;;
4508;SDS011;2267;48.816;9.230;2023-12-14T03:12:10;4.60;;;3.70;;
4508;SDS011;2267;48.816;9.230;2023-12-14T03:14:36;5.13;;;4.67;;
4508;SDS011;2267;48.816;9.230;2023-12-14T03:17:03;5.97;;;4.60;;
4508;SDS011;2267;48.816;9.230;2023-12-14T03:19:31;4.47;;;4.03;;
4508;SDS011;2267;48.816;9.230;2023-12-14T03:21:59;4.20;;;3.83;;
4508;SDS011;2267;48.816;9.230;2023-12-14T03:24:25;2.73;;;2.53;;
4508;SDS011;2267;48.816;9.230;2023-12-14T03:26:53;3.60;;;3.30;;
4508;SDS011;2267;48.816;9.230;2023-12-14T03:29:19;2.83;;;2.37;;
4508;SDS011;2267;48.816;9.230;2023-12-14T03:31:47;2.30;;;2.10;;
4508;SDS011;2267;48.816;9.230;2023-12-14T03:34:15;3.83;;;3.50;;
4508;SDS011;2267;48.816;9.230;2023-12-14T03:36:41;5.30;;;3.27;;
4508;SDS011;2267;48.816;9.230;2023-12-14T03:39:09;3.00;;;2.80;;
4508;SDS011;2267;48.816;9.230;2023-12-14T03:41:36;3.40;;;2.90;;
4508;SDS011;2267;48.816;9.230;2023-12-14T03:44:03;3.20;;;2.40;;
4508;SDS011;2267;48.816;9.230;2023-12-14T03:46:30;2.80;;;2.53;;
4508;SDS011;2267;48.816;9.230;2023-12-14T03:48:57;3.17;;;2.80;;
4508;SDS011;2267;48.816;9.230;2023-12-14T03:51:23;2.90;;;2.30;;
4508;SDS011;2267;48.816;9.230;2023-12-14T03:53:50;2.77;;;2.57;;
4508;SDS011;2267;48.816;9.230;2023-12-14T03:56:17;4.23;;;3.17;;
4508;SDS011;2267;48.816;9.230;2023-12-14T03:58:44;3.30;;;3.00;;
4508;SDS011;2267;48.816;9.230;2023-12-14T04:01:17;3.70;;;3.40;;
4508;SDS011;2267;48.816;9.230;2023-12-14T04:03:45;3.67;;;2.90;;
4508;SDS011;2267;48.816;9.230;2023-12-14T04:06:12;3.77;;;3.03;;
4508;SDS011;2267;48.816;9.230;2023-12-14T04:08:40;3.97;;;2.70;;
4508;SDS011;2267;48.816;9.230;2023-12-14T04:11:07;3.23;;;2.50;;
4508;SDS011;2267;48.816;9.230;2023-12-14T04:13:34;3.40;;;3.10;;
4508;SDS011;2267;48.816;9.230;2023-12-14T04:16:01;2.80;;;2.50;;
4508;SDS011;2267;48.816;9.230;2023-12-14T04:18:29;4.77;;;3.10;;
4508;SDS011;2267;48.816;9.230;2023-12-14T04:20:56;3.53;;;3.20;;
4508;SDS011;2267;48.816;9.230;2023-12-14T04:23:22;3.10;;;2.80;;
4508;SDS011;2267;48.816;9.230;2023-12-14T04:25:50;3.70;;;3.33;;
4508;SDS011;2267;48.816;9.230;2023-12-14T04:28:16;4.27;;;2.73;;
4508;SDS011;2267;48.816;9.230;2023-12-14T04:30:44;4.53;;;3.40;;
4508;SDS011;2267;48.816;9.230;2023-12-14T04:33:10;3.60;;;2.60;;
4508;SDS011;2267;48.816;9.230;2023-12-14T04:35:38;4.23;;;3.07;;
4508;SDS011;2267;48.816;9.230;2023-12-14T04:38:04;4.70;;;3.70;;
4508;SDS011;2267;48.816;9.230;2023-12-14T04:40:32;4.60;;;3.50;;
4508;SDS011;2267;48.816;9.230;2023-12-14T04:42:59;3.70;;;3.40;;
4508;SDS011;2267;48.816;9.230;2023-12-14T04:45:26;4.10;;;3.70;;
4508;SDS011;2267;48.816;9.230;2023-12-14T04:47:53;4.40;;;4.00;;
4508;SDS011;2267;48.816;9.230;2023-12-14T04:50:20;4.60;;;3.83;;
4508;SDS011;2267;48.816;9.230;2023-12-14T04:52:47;4.03;;;3.63;;
4508;SDS011;2267;48.816;9.230;2023-12-14T04:55:14;2.97;;;2.67;;
4508;SDS011;2267;48.816;9.230;2023-12-14T04:57:41;3.70;;;3.40;;
4508;SDS011;2267;48.816;9.230;2023-12-14T05:00:08;4.73;;;3.40;;
4508;SDS011;2267;48.816;9.230;2023-12-14T05:02:35;4.43;;;3.53;;
4508;SDS011;2267;48.816;9.230;2023-12-14T05:05:03;5.83;;;3.90;;
4508;SDS011;2267;48.816;9.230;2023-12-14T05:07:30;5.03;;;4.23;;
4508;SDS011;2267;48.816;9.230;2023-12-14T05:09:57;6.73;;;4.07;;
4508;SDS011;2267;48.816;9.230;2023-12-14T05:12:24;3.83;;;3.53;;
4508;SDS011;2267;48.816;9.230;2023-12-14T05:14:53;4.70;;;3.93;;
4508;SDS011;2267;48.816;9.230;2023-12-14T05:17:19;4.07;;;3.77;;
4508;SDS011;2267;48.816;9.230;2023-12-14T05:19:47;5.07;;;3.63;;
4508;SDS011;2267;48.816;9.230;2023-12-14T05:22:14;4.10;;;3.30;;
4508;SDS011;2267;48.816;9.230;2023-12-14T05:24:40;5.27;;;4.33;;
4508;SDS011;2267;48.816;9.230;2023-12-14T05:27:08;5.07;;;3.93;;
4508;SDS011;2267;48.816;9.230;2023-12-14T05:29:35;4.77;;;4.37;;
4508;SDS011;2267;48.816;9.230;2023-12-14T05:32:01;4.27;;;3.60;;
4508;SDS011;2267;48.816;9.230;2023-12-14T05:34:29;4.00;;;3.60;;
4508;SDS011;2267;48.816;9.230;2023-12-14T05:36:57;5.20;;;4.10;;
4508;SDS011;2267;48.816;9.230;2023-12-14T05:39:24;4.27;;;3.90;;
4508;SDS011;2267;48.816;9.230;2023-12-14T05:41:51;3.60;;;3.30;;
4508;SDS011;2267;48.816;9.230;2023-12-14T05:44:18;4.90;;;4.10;;
4508;SDS011;2267;48.816;9.230;2023-12-14T05:46:45;4.20;;;3.80;;
4508;SDS011;2267;48.816;9.230;2023-12-14T05:49:12;4.40;;;3.40;;
4508;SDS011;2267;48.816;9.230;2023-12-14T05:51:39;4.00;;;3.57;;
4508;SDS011;2267;48.816;9.230;2023-12-14T05:54:06;3.93;;;3.63;;
4508;SDS011;2267;48.816;9.230;2023-12-14T05:56:33;3.47;;;3.17;;
4508;SDS011;2267;48.816;9.230;2023-12-14T05:59:04;4.17;;;3.10;;
4508;SDS011;2267;48.816;9.230;2023-12-14T06:01:30;5.10;;;3.97;;
4508;SDS011;2267;48.816;9.230;2023-12-14T06:03:57;4.50;;;4.10;;
4508;SDS011;2267;48.816;9.230;2023-12-14T06:06:24;8.70;;;4.13;;
4508;SDS011;2267;48.816;9.230;2023-12-14T06:08:52;4.37;;;4.00;;
4508;SDS011;2267;48.816;9.230;2023-12-14T06:11:18;3.63;;;3.33;;
4508;SDS011;2267;48.816;9.230;2023-12-14T06:13:46;5.10;;;4.13;;
4508;SDS011;2267;48.816;9.230;2023-12-14T06:16:14;4.83;;;4.33;;
4508;SDS011;2267;48.816;9.230;2023-12-14T06:18:40;5.17;;;4.30;;
4508;SDS011;2267;48.816;9.230;2023-12-14T06:21:11;5.40;;;3.63;;
4508;SDS011;2267;48.816;9.230;2023-12-14T06:23:39;4.63;;;3.30;;
4508;SDS011;2267;48.816;9.230;2023-12-14T06:26:06;3.70;;;3.40;;
4508;SDS011;2267;48.816;9.230;2023-12-14T06:28:33;4.10;;;3.80;;
4508;SDS011;2267;48.816;9.230;2023-12-14T06:31:00;4.13;;;3.73;;
4508;SDS011;2267;48.816;9.230;2023-12-14T06:33:27;3.90;;;3.60;;
4508;SDS011;2267;48.816;9.230;2023-12-14T06:35:55;4.27;;;3.87;;
4508;SDS011;2267;48.816;9.230;2023-12-14T06:38:22;3.87;;;3.57;;
4508;SDS011;2267;48.816;9.230;2023-12-14T06:40:49;4.13;;;3.73;;
4508;SDS011;2267;48.816;9.230;2023-12-14T06:43:16;5.10;;;4.20;;
4508;SDS011;2267;48.816;9.230;2023-12-14T06:45:43;4.47;;;3.80;;
4508;SDS011;2267;48.816;9.230;2023-12-14T06:48:10;5.40;;;4.00;;
4508;SDS011;2267;48.816;9.230;2023-12-14T06:50:37;4.70;;;4.30;;
4508;SDS011;2267;48.816;9.230;2023-12-14T06:53:05;4.13;;;3.73;;
4508;SDS011;2267;48.816;9.230;2023-12-14T06:55:31;4.10;;;3.70;;
4508;SDS011;2267;48.816;9.230;2023-12-14T06:57:58;4.40;;;4.00;;
4508;SDS011;2267;48.816;9.230;2023-12-14T07:00:25;4.07;;;3.77;;
4508;SDS011;2267;48.816;9.230;2023-12-14T07:02:52;4.03;;;3.63;;
4508;SDS011;2267;48.816;9.230;2023-12-14T07:05:20;5.07;;;4.67;;
4508;SDS011;2267;48.816;9.230;2023-12-14T07:07:47;4.57;;;4.17;;
4508;SDS011;2267;48.816;9.230;2023-12-14T07:10:13;4.70;;;4.30;;
4508;SDS011;2267;48.816;9.230;2023-12-14T07:12:41;3.83;;;3.50;;
4508;SDS011;2267;48.816;9.230;2023-12-14T07:15:08;4.30;;;3.73;;
4508;SDS011;2267;48.816;9.230;2023-12-14T07:17:35;4.70;;;4.30;;
4508;SDS011;2267;48.816;9.230;2023-12-14T07:20:02;4.00;;;3.60;;
4508;SDS011;2267;48.816;9.230;2023-12-14T07:22:29;5.63;;;4.23;;
4508;SDS011;2267;48.816;9.230;2023-12-14T07:24:56;3.87;;;3.57;;
4508;SDS011;2267;48.816;9.230;2023-12-14T07:27:25;4.23;;;3.93;;
4508;SDS011;2267;48.816;9.230;2023-12-14T07:29:53;4.67;;;4.37;;
4508;SDS011;2267;48.816;9.230;2023-12-14T07:32:20;4.47;;;4.07;;
4508;SDS011;2267;48.816;9.230;2023-12-14T07:34:47;4.83;;;4.43;;
4508;SDS011;2267;48.816;9.230;2023-12-14T07:37:14;4.80;;;4.40;;
4508;SDS011;2267;48.816;9.230;2023-12-14T07:39:41;5.10;;;4.60;;
4508;SDS011;2267;48.816;9.230;2023-12-14T07:42:08;4.67;;;4.27;;
4508;SDS011;2267;48.816;9.230;2023-12-14T07:44:35;5.13;;;4.73;;
4508;SDS011;2267;48.816;9.230;2023-12-14T07:47:03;5.70;;;5.20;;
4508;SDS011;2267;48.816;9.230;2023-12-14T07:49:30;5.33;;;4.93;;
4508;SDS011;2267;48.816;9.230;2023-12-14T07:51:57;5.90;;;5.40;;
4508;SDS011;2267;48.816;9.230;2023-12-14T07:54:24;5.77;;;5.27;;
4508;SDS011;2267;48.816;9.230;2023-12-14T07:56:53;5.93;;;5.40;;
4508;SDS011;2267;48.816;9.230;2023-12-14T07:59:20;6.30;;;5.80;;
4508;SDS011;2267;48.816;9.230;2023-12-14T08:01:47;6.57;;;6.00;;
4508;SDS011;2267;48.816;9.230;2023-12-14T08:04:14;6.83;;;5.50;;
4508;SDS011;2267;48.816;9.230;2023-12-14T08:06:41;6.00;;;5.50;;
4508;SDS011;2267;48.816;9.230;2023-12-14T08:09:08;7.47;;;6.27;;
4508;SDS011;2267;48.816;9.230;2023-12-14T08:11:36;5.80;;;5.30;;
4508;SDS011;2267;48.816;9.230;2023-12-14T08:14:03;7.53;;;6.83;;
4508;SDS011;2267;48.816;9.230;2023-12-14T08:16:30;6.00;;;5.50;;
4508;SDS011;2267;48.816;9.230;2023-12-14T08:18:57;6.10;;;5.60;;
4508;SDS011;2267;48.816;9.230;2023-12-14T08:21:24;6.10;;;5.50;;
4508;SDS011;2267;48.816;9.230;2023-12-14T08:23:51;6.63;;;6.10;;
4508;SDS011;2267;48.816;9.230;2023-12-14T08:26:18;6.00;;;5.50;;
4508;SDS011;2267;48.816;9.230;2023-12-14T08:28:45;7.20;;;6.60;;
4508;SDS011;2267;48.816;9.230;2023-12-14T08:31:12;6.97;;;6.47;;
4508;SDS011;2267;48.816;9.230;2023-12-14T08:33:41;6.17;;;5.67;;
4508;SDS011;2267;48.816;9.230;2023-12-14T08:36:14;6.40;;;5.67;;
4508;SDS011;2267;48.816;9.230;2023-12-14T08:38:42;5.20;;;4.70;;
4508;SDS011;2267;48.816;9.230;2023-12-14T08:41:15;7.20;;;6.50;;
4508;SDS011;2267;48.816;9.230;2023-12-14T08:43:42;8.30;;;7.60;;
4508;SDS011;2267;48.816;9.230;2023-12-14T08:46:10;7.20;;;6.50;;
4508;SDS011;2267;48.816;9.230;2023-12-14T08:48:37;8.43;;;7.20;;
4508;SDS011;2267;48.816;9.230;2023-12-14T08:51:04;7.67;;;6.20;;
4508;SDS011;2267;48.816;9.230;2023-12-14T08:53:31;7.30;;;6.60;;
4508;SDS011;2267;48.816;9.230;2023-12-14T08:55:59;8.47;;;7.67;;
4508;SDS011;2267;48.816;9.230;2023-12-14T08:58:26;7.87;;;7.00;;
4508;SDS011;2267;48.816;9.230;2023-12-14T09:00:53;6.83;;;6.33;;
4508;SDS011;2267;48.816;9.230;2023-12-14T09:03:20;7.40;;;6.73;;
4508;SDS011;2267;48.816;9.230;2023-12-14T09:05:47;8.33;;;7.10;;
4508;SDS011;2267;48.816;9.230;2023-12-14T09:08:14;8.33;;;7.63;;
4508;SDS011;2267;48.816;9.230;2023-12-14T09:10:41;9.80;;;8.87;;
4508;SDS011;2267;48.816;9.230;2023-12-14T09:13:08;8.83;;;8.03;;
4508;SDS011;2267;48.816;9.230;2023-12-14T09:15:35;8.57;;;7.73;;
4508;SDS011;2267;48.816;9.230;2023-12-14T09:18:02;9.30;;;8.33;;
4508;SDS011;2267;48.816;9.230;2023-12-14T09:20:30;9.23;;;8.43;;
4508;SDS011;2267;48.816;9.230;2023-12-14T09:22:57;8.43;;;7.73;;
4508;SDS011;2267;48.816;9.230;2023-12-14T09:25:24;8.80;;;8.00;;
4508;SDS011;2267;48.816;9.230;2023-12-14T09:27:51;9.17;;;8.37;;
4508;SDS011;2267;48.816;9.230;2023-12-14T09:30:19;9.97;;;9.20;;
4508;SDS011;2267;48.816;9.230;2023-12-14T09:32:46;10.73;;;9.73;;
4508;SDS011;2267;48.816;9.230;2023-12-14T09:35:13;9.17;;;8.37;;
4508;SDS011;2267;48.816;9.230;2023-12-14T09:37:40;9.77;;;8.87;;
4508;SDS011;2267;48.816;9.230;2023-12-14T09:40:07;9.07;;;8.37;;
4508;SDS011;2267;48.816;9.230;2023-12-14T09:42:36;9.00;;;8.30;;
4508;SDS011;2267;48.816;9.230;2023-12-14T09:45:06;9.83;;;8.90;;
4508;SDS011;2267;48.816;9.230;2023-12-14T09:47:35;8.00;;;7.30;;
4508;SDS011;2267;48.816;9.230;2023-12-14T09:50:03;8.03;;;7.43;;
4508;SDS011;2267;48.816;9.230;2023-12-14T09:52:31;8.30;;;7.60;;
4508;SDS011;2267;48.816;9.230;2023-12-14T09:54:59;12.17;;;10.37;;
4508;SDS011;2267;48.816;9.230;2023-12-14T09:57:26;9.67;;;8.87;;
4508;SDS011;2267;48.816;9.230;2023-12-14T09:59:53;10.20;;;9.40;;
4508;SDS011;2267;48.816;9.230;2023-12-14T10:02:29;9.60;;;8.80;;
4508;SDS011;2267;48.816;9.230;2023-12-14T10:04:56;10.70;;;9.70;;
4508;SDS011;2267;48.816;9.230;2023-12-14T10:07:23;9.63;;;8.53;;
4508;SDS011;2267;48.816;9.230;2023-12-14T10:09:50;11.40;;;10.40;;
4508;SDS011;2267;48.816;9.230;2023-12-14T10:12:19;10.33;;;9.37;;
4508;SDS011;2267;48.816;9.230;2023-12-14T10:14:48;10.13;;;9.33;;
4508;SDS011;2267;48.816;9.230;2023-12-14T10:17:27;9.00;;;8.10;;
4508;SDS011;2267;48.816;9.230;2023-12-14T10:19:59;9.70;;;8.80;;
4508;SDS011;2267;48.816;9.230;2023-12-14T10:22:30;9.27;;;8.47;;
4508;SDS011;2267;48.816;9.230;2023-12-14T10:24:58;8.90;;;8.10;;
4508;SDS011;2267;48.816;9.230;2023-12-14T10:27:27;10.60;;;9.70;;
4508;SDS011;2267;48.816;9.230;2023-12-14T10:29:55;9.77;;;8.83;;
4508;SDS011;2267;48.816;9.230;2023-12-14T10:32:23;11.73;;;10.47;;
4508;SDS011;2267;48.816;9.230;2023-12-14T10:34:50;9.67;;;8.87;;
4508;SDS011;2267;48.816;9.230;2023-12-14T10:37:17;10.33;;;8.97;;
4508;SDS011;2267;48.816;9.230;2023-12-14T10:39:46;12.97;;;11.57;;
4508;SDS011;2267;48.816;9.230;2023-12-14T10:42:15;10.40;;;9.40;;
4508;SDS011;2267;48.816;9.230;2023-12-14T10:44:48;9.43;;;8.63;;
4508;SDS011;2267;48.816;9.230;2023-12-14T10:47:21;11.50;;;10.50;;
4508;SDS011;2267;48.816;9.230;2023-12-14T10:49:50;11.13;;;10.03;;
4508;SDS011;2267;48.816;9.230;2023-12-14T10:52:18;10.37;;;9.50;;
4508;SDS011;2267;48.816;9.230;2023-12-14T10:54:47;9.87;;;8.87;;
4508;SDS011;2267;48.816;9.230;2023-12-14T10:57:20;8.90;;;8.10;;
4508;SDS011;2267;48.816;9.230;2023-12-14T10:59:55;9.43;;;8.53;;
4508;SDS011;2267;48.816;9.230;2023-12-14T11:02:27;9.07;;;8.33;;
4508;SDS011;2267;48.816;9.230;2023-12-14T11:04:57;7.40;;;6.80;;
4508;SDS011;2267;48.816;9.230;2023-12-14T11:07:51;8.20;;;7.40;;
4508;SDS011;2267;48.816;9.230;2023-12-14T11:10:27;9.00;;;8.30;;
4508;SDS011;2267;48.816;9.230;2023-12-14T11:13:02;8.27;;;7.00;;
4508;SDS011;2267;48.816;9.230;2023-12-14T11:15:35;11.70;;;8.67;;
4508;SDS011;2267;48.816;9.230;2023-12-14T11:23:13;7.40;;;6.70;;
4508;SDS011;2267;48.816;9.230;2023-12-14T11:25:48;6.60;;;5.97;;
4508;SDS011;2267;48.816;9.230;2023-12-14T11:28:24;6.87;;;6.27;;
4508;SDS011;2267;48.816;9.230;2023-12-14T11:30:53;7.40;;;6.70;;
4508;SDS011;2267;48.816;9.230;2023-12-14T11:33:23;7.33;;;6.63;;
4508;SDS011;2267;48.816;9.230;2023-12-14T11:35:51;6.83;;;5.67;;
4508;SDS011;2267;48.816;9.230;2023-12-14T11:38:22;7.33;;;6.67;;
4508;SDS011;2267;48.816;9.230;2023-12-14T11:40:50;8.47;;;6.40;;
4508;SDS011;2267;48.816;9.230;2023-12-14T11:43:18;6.03;;;5.50;;
4508;SDS011;2267;48.816;9.230;2023-12-14T11:45:48;5.90;;;5.40;;
4508;SDS011;2267;48.816;9.230;2023-12-14T11:48:15;10.20;;;5.67;;
4508;SDS011;2267;48.816;9.230;2023-12-14T11:50:43;6.20;;;5.60;;
4508;SDS011;2267;48.816;9.230;2023-12-14T11:53:11;7.57;;;6.20;;
4508;SDS011;2267;48.816;9.230;2023-12-14T11:55:39;7.07;;;6.37;;
4508;SDS011;2267;48.816;9.230;2023-12-14T11:58:07;6.70;;;6.10;;
4508;SDS011;2267;48.816;9.230;2023-12-14T12:00:34;7.90;;;6.60;;
4508;SDS011;2267;48.816;9.230;2023-12-14T12:05:41;6.13;;;5.63;;
4508;SDS011;2267;48.816;9.230;2023-12-14T12:08:13;7.20;;;6.60;;
4508;SDS011;2267;48.816;9.230;2023-12-14T12:10:42;6.03;;;5.43;;
4508;SDS011;2267;48.816;9.230;2023-12-14T12:13:16;6.40;;;5.70;;
4508;SDS011;2267;48.816;9.230;2023-12-14T12:15:44;7.60;;;5.10;;
4508;SDS011;2267;48.816;9.230;2023-12-14T12:18:14;4.30;;;3.90;;
4508;SDS011;2267;48.816;9.230;2023-12-14T12:20:45;4.00;;;3.70;;
4508;SDS011;2267;48.816;9.230;2023-12-14T12:23:13;4.47;;;4.07;;
4508;SDS011;2267;48.816;9.230;2023-12-14T12:25:40;4.07;;;3.67;;
4508;SDS011;2267;48.816;9.230;2023-12-14T12:28:07;4.33;;;3.97;;
4508;SDS011;2267;48.816;9.230;2023-12-14T12:30:33;3.77;;;3.47;;
4508;SDS011;2267;48.816;9.230;2023-12-14T12:33:05;4.17;;;3.77;;
4508;SDS011;2267;48.816;9.230;2023-12-14T12:35:32;4.40;;;4.00;;
4508;SDS011;2267;48.816;9.230;2023-12-14T12:38:00;4.57;;;4.17;;
4508;SDS011;2267;48.816;9.230;2023-12-14T12:40:28;4.17;;;3.77;;
4508;SDS011;2267;48.816;9.230;2023-12-14T12:42:57;4.50;;;4.00;;
4508;SDS011;2267;48.816;9.230;2023-12-14T12:45:24;4.77;;;4.37;;
4508;SDS011;2267;48.816;9.230;2023-12-14T12:47:55;4.10;;;3.80;;
4508;SDS011;2267;48.816;9.230;2023-12-14T12:50:22;4.40;;;3.97;;
4508;SDS011;2267;48.816;9.230;2023-12-14T12:52:49;4.50;;;4.10;;
4508;SDS011;2267;48.816;9.230;2023-12-14T12:55:17;4.70;;;4.20;;
4508;SDS011;2267;48.816;9.230;2023-12-14T12:57:44;5.17;;;4.70;;
4508;SDS011;2267;48.816;9.230;2023-12-14T13:00:11;4.97;;;4.57;;
4508;SDS011;2267;48.816;9.230;2023-12-14T13:02:39;5.23;;;4.67;;
4508;SDS011;2267;48.816;9.230;2023-12-14T13:05:07;6.10;;;4.83;;
4508;SDS011;2267;48.816;9.230;2023-12-14T13:07:39;5.90;;;4.43;;
4508;SDS011;2267;48.816;9.230;2023-12-14T13:10:06;4.43;;;4.10;;
4508;SDS011;2267;48.816;9.230;2023-12-14T13:12:50;4.50;;;4.10;;
4508;SDS011;2267;48.816;9.230;2023-12-14T13:15:17;5.30;;;4.87;;
4508;SDS011;2267;48.816;9.230;2023-12-14T13:17:45;5.70;;;5.10;;
4508;SDS011;2267;48.816;9.230;2023-12-14T13:20:12;5.03;;;3.77;;
4508;SDS011;2267;48.816;9.230;2023-12-14T13:22:39;4.30;;;3.90;;
4508;SDS011;2267;48.816;9.230;2023-12-14T13:25:06;5.53;;;4.10;;
4508;SDS011;2267;48.816;9.230;2023-12-14T13:27:34;4.63;;;4.23;;
4508;SDS011;2267;48.816;9.230;2023-12-14T13:30:03;4.37;;;4.03;;
4508;SDS011;2267;48.816;9.230;2023-12-14T13:32:31;4.73;;;4.33;;
4508;SDS011;2267;48.816;9.230;2023-12-14T13:34:58;3.87;;;3.47;;
4508;SDS011;2267;48.816;9.230;2023-12-14T13:37:26;4.67;;;4.27;;
4508;SDS011;2267;48.816;9.230;2023-12-14T13:39:53;4.27;;;3.87;;
4508;SDS011;2267;48.816;9.230;2023-12-14T13:42:20;4.20;;;3.80;;
4508;SDS011;2267;48.816;9.230;2023-12-14T13:44:47;4.30;;;3.90;;
4508;SDS011;2267;48.816;9.230;2023-12-14T13:47:14;4.00;;;3.53;;
4508;SDS011;2267;48.816;9.230;2023-12-14T13:49:41;3.30;;;3.00;;
4508;SDS011;2267;48.816;9.230;2023-12-14T13:52:08;3.97;;;3.57;;
4508;SDS011;2267;48.816;9.230;2023-12-14T13:54:35;3.93;;;2.50;;
4508;SDS011;2267;48.816;9.230;2023-12-14T13:57:05;3.40;;;3.10;;
4508;SDS011;2267;48.816;9.230;2023-12-14T13:59:32;4.80;;;4.23;;
4508;SDS011;2267;48.816;9.230;2023-12-14T14:01:58;5.27;;;4.77;;
4508;SDS011;2267;48.816;9.230;2023-12-14T14:04:25;4.40;;;4.00;;
4508;SDS011;2267;48.816;9.230;2023-12-14T14:06:53;3.90;;;3.60;;
4508;SDS011;2267;48.816;9.230;2023-12-14T14:09:20;5.43;;;4.23;;
4508;SDS011;2267;48.816;9.230;2023-12-14T14:11:47;4.80;;;4.30;;
4508;SDS011;2267;48.816;9.230;2023-12-14T14:14:15;5.93;;;5.03;;
4508;SDS011;2267;48.816;9.230;2023-12-14T14:16:43;4.40;;;3.97;;
4508;SDS011;2267;48.816;9.230;2023-12-14T14:19:10;5.00;;;4.60;;
4508;SDS011;2267;48.816;9.230;2023-12-14T14:21:36;4.90;;;4.37;;
4508;SDS011;2267;48.816;9.230;2023-12-14T14:24:03;5.37;;;4.97;;
4508;SDS011;2267;48.816;9.230;2023-12-14T14:26:31;5.33;;;4.93;;
4508;SDS011;2267;48.816;9.230;2023-12-14T14:28:58;6.00;;;5.50;;
4508;SDS011;2267;48.816;9.230;2023-12-14T14:31:28;6.70;;;6.10;;
4508;SDS011;2267;48.816;9.230;2023-12-14T14:33:59;6.93;;;6.30;;
4508;SDS011;2267;48.816;9.230;2023-12-14T14:36:27;5.97;;;5.37;;
4508;SDS011;2267;48.816;9.230;2023-12-14T14:38:54;5.83;;;5.33;;
4508;SDS011;2267;48.816;9.230;2023-12-14T14:41:23;7.90;;;7.10;;
4508;SDS011;2267;48.816;9.230;2023-12-14T14:43:51;7.70;;;7.00;;
4508;SDS011;2267;48.816;9.230;2023-12-14T14:46:18;8.53;;;7.80;;
4508;SDS011;2267;48.816;9.230;2023-12-14T14:48:45;8.63;;;7.83;;
4508;SDS011;2267;48.816;9.230;2023-12-14T14:51:12;8.23;;;7.43;;
4508;SDS011;2267;48.816;9.230;2023-12-14T14:53:39;9.37;;;8.50;;
4508;SDS011;2267;48.816;9.230;2023-12-14T14:56:09;9.03;;;8.23;;
4508;SDS011;2267;48.816;9.230;2023-12-14T14:58:37;9.30;;;8.60;;
4508;SDS011;2267;48.816;9.230;2023-12-14T15:01:04;10.07;;;9.27;;
4508;SDS011;2267;48.816;9.230;2023-12-14T15:03:32;9.50;;;7.90;;
4508;SDS011;2267;48.816;9.230;2023-12-14T15:05:59;10.07;;;9.00;;
4508;SDS011;2267;48.816;9.230;2023-12-14T15:08:26;9.63;;;8.73;;
4508;SDS011;2267;48.816;9.230;2023-12-14T15:10:53;10.67;;;9.70;;
4508;SDS011;2267;48.816;9.230;2023-12-14T15:13:22;12.67;;;11.47;;
4508;SDS011;2267;48.816;9.230;2023-12-14T15:15:49;10.77;;;9.77;;
4508;SDS011;2267;48.816;9.230;2023-12-14T15:18:16;11.53;;;10.50;;
4508;SDS011;2267;48.816;9.230;2023-12-14T15:20:43;11.73;;;10.53;;
4508;SDS011;2267;48.816;9.230;2023-12-14T15:23:12;11.00;;;10.00;;
4508;SDS011;2267;48.816;9.230;2023-12-14T15:25:39;11.30;;;10.20;;
4508;SDS011;2267;48.816;9.230;2023-12-14T15:28:06;11.90;;;10.77;;